createdAt,value
2018-11-04T00:02:05.472Z,100.00
2018-11-04T00:04:33.779Z,100.00
2018-11-04T00:07:03.029Z,100.00
2018-11-04T00:09:32.319Z,100.00
2018-11-04T00:12:00.612Z,100.00
2018-11-04T00:14:28.872Z,100.00
2018-11-04T00:16:57.146Z,100.00
2018-11-04T00:19:25.391Z,100.00
2018-11-04T00:21:53.654Z,100.00
2018-11-04T00:24:21.961Z,100.00
2018-11-04T00:26:50.226Z,100.00
2018-11-04T00:29:19.453Z,100.00
2018-11-04T00:31:47.677Z,100.00
2018-11-04T00:34:15.933Z,100.00
2018-11-04T00:36:44.184Z,100.00
2018-11-04T00:39:13.514Z,100.00
2018-11-04T00:41:41.747Z,100.00
2018-11-04T00:44:10.940Z,100.00
2018-11-04T00:46:39.211Z,100.00
2018-11-04T00:49:07.826Z,100.00
2018-11-04T00:51:36.031Z,100.00
2018-11-04T00:54:04.292Z,100.00
2018-11-04T00:56:32.598Z,100.00
2018-11-04T00:59:00.828Z,100.00
2018-11-04T01:01:29.389Z,100.00
2018-11-04T01:03:57.607Z,100.00
2018-11-04T01:06:25.872Z,99.41
2018-11-04T01:08:54.437Z,99.36
2018-11-04T01:11:22.773Z,99.11
2018-11-04T01:13:50.973Z,100.00
2018-11-04T01:16:19.184Z,99.83
2018-11-04T01:18:54.103Z,98.92
2018-11-04T01:21:22.311Z,99.45
2018-11-04T01:23:50.520Z,100.00
2018-11-04T01:26:18.738Z,100.00
2018-11-04T01:28:47.228Z,100.00
2018-11-04T01:37:29.761Z,100.00
2018-11-04T01:39:57.978Z,100.00
2018-11-04T01:42:26.216Z,100.00
2018-11-04T01:44:54.430Z,100.00
2018-11-04T01:47:22.650Z,100.00
2018-11-04T01:49:50.856Z,100.00
2018-11-04T01:52:19.091Z,100.00
2018-11-04T01:54:47.306Z,100.00
2018-11-04T01:57:15.515Z,100.00
2018-11-04T01:59:43.715Z,100.00
2018-11-04T02:02:11.913Z,100.00
2018-11-04T02:04:40.123Z,100.00
2018-11-04T02:07:08.343Z,100.00
2018-11-04T02:09:36.589Z,100.00
2018-11-04T02:12:05.375Z,100.00
2018-11-04T02:14:33.588Z,100.00
2018-11-04T02:17:01.822Z,100.00
2018-11-04T02:19:30.045Z,100.00
2018-11-04T02:21:58.269Z,100.00
2018-11-04T02:24:26.480Z,100.00
2018-11-04T02:26:54.686Z,100.00
2018-11-04T02:29:22.910Z,99.52
2018-11-04T02:31:51.116Z,100.00
2018-11-04T02:34:19.303Z,99.21
2018-11-04T02:36:47.503Z,99.67
2018-11-04T02:39:15.703Z,99.84
2018-11-04T02:41:43.914Z,100.00
2018-11-04T02:44:12.141Z,100.00
2018-11-04T02:46:40.375Z,100.00
2018-11-04T02:49:08.621Z,100.00
2018-11-04T02:51:36.870Z,99.88
2018-11-04T02:54:05.076Z,100.00
2018-11-04T02:56:33.277Z,100.00
2018-11-04T02:59:01.838Z,100.00
2018-11-04T03:01:30.072Z,100.00
2018-11-04T03:03:58.288Z,100.00
2018-11-04T03:06:26.556Z,100.00
2018-11-04T03:08:55.843Z,100.00
2018-11-04T03:11:24.061Z,100.00
2018-11-04T03:13:52.265Z,100.00
2018-11-04T03:16:20.448Z,100.00
2018-11-04T03:18:48.761Z,100.00
2018-11-04T03:21:17.358Z,100.00
2018-11-04T03:23:45.593Z,100.00
2018-11-04T03:26:13.891Z,100.00
2018-11-04T03:31:16.606Z,99.27
2018-11-04T03:33:44.831Z,99.42
2018-11-04T03:36:13.050Z,100.00
2018-11-04T03:38:41.266Z,100.00
2018-11-04T03:41:09.506Z,100.00
2018-11-04T03:43:37.691Z,100.00
2018-11-04T03:46:06.251Z,99.63
2018-11-04T03:48:34.456Z,100.00
2018-11-04T03:51:02.668Z,100.00
2018-11-04T03:53:30.855Z,100.00
2018-11-04T03:55:59.098Z,100.00
2018-11-04T03:58:27.306Z,100.00
2018-11-04T04:00:55.903Z,100.00
2018-11-04T04:03:24.108Z,100.00
2018-11-04T04:05:52.357Z,99.87
2018-11-04T04:08:20.578Z,99.33
2018-11-04T04:10:48.784Z,97.97
2018-11-04T04:13:16.972Z,97.96
2018-11-04T04:15:45.171Z,97.37
2018-11-04T04:18:13.372Z,98.23
2018-11-04T04:20:41.666Z,97.71
2018-11-04T04:23:09.860Z,98.15
2018-11-04T04:25:38.089Z,97.27
2018-11-04T04:28:08.810Z,97.77
2018-11-04T04:30:39.433Z,98.37
2018-11-04T04:33:07.654Z,98.52
2018-11-04T04:35:35.845Z,98.92
2018-11-04T04:38:04.907Z,98.22
2018-11-04T04:40:33.099Z,98.49
2018-11-04T04:43:01.318Z,99.89
2018-11-04T04:45:29.519Z,99.94
2018-11-04T04:47:57.725Z,99.97
2018-11-04T04:50:25.912Z,99.50
2018-11-04T04:52:54.095Z,100.00
2018-11-04T04:55:22.306Z,99.13
2018-11-04T04:57:50.502Z,99.33
2018-11-04T05:00:19.744Z,97.54
2018-11-04T05:02:47.970Z,97.39
2018-11-04T05:05:17.160Z,97.53
2018-11-04T05:07:45.352Z,99.26
2018-11-04T05:10:13.572Z,100.00
2018-11-04T05:12:42.043Z,100.00
2018-11-04T05:15:10.245Z,100.00
2018-11-04T05:17:38.435Z,100.00
2018-11-04T05:20:06.675Z,100.00
2018-11-04T05:22:34.895Z,100.00
2018-11-04T05:25:03.105Z,100.00
2018-11-04T05:27:31.312Z,100.00
2018-11-04T05:29:59.538Z,100.00
2018-11-04T05:32:27.739Z,100.00
2018-11-04T05:34:55.934Z,100.00
2018-11-04T05:37:24.148Z,100.00
2018-11-04T05:39:52.358Z,100.00
2018-11-04T05:42:20.567Z,100.00
2018-11-04T05:44:48.767Z,100.00
2018-11-04T05:47:17.003Z,100.00
2018-11-04T05:49:45.257Z,100.00
2018-11-04T05:52:13.516Z,100.00
2018-11-04T05:54:41.718Z,100.00
2018-11-04T05:57:10.290Z,100.00
2018-11-04T05:59:38.758Z,100.00
2018-11-04T06:02:06.971Z,100.00
2018-11-04T06:04:35.218Z,100.00
2018-11-04T06:07:03.444Z,100.00
2018-11-04T06:09:31.637Z,100.00
2018-11-04T06:12:00.956Z,100.00
2018-11-04T06:14:29.153Z,100.00
2018-11-04T06:16:57.369Z,100.00
2018-11-04T06:19:25.627Z,100.00
2018-11-04T06:21:53.841Z,100.00
2018-11-04T06:24:22.041Z,100.00
2018-11-04T06:26:50.250Z,100.00
2018-11-04T06:29:18.468Z,100.00
2018-11-04T06:31:46.686Z,100.00
2018-11-04T06:34:14.900Z,100.00
2018-11-04T06:36:43.103Z,100.00
2018-11-04T06:39:11.758Z,100.00
2018-11-04T06:41:39.991Z,100.00
2018-11-04T06:44:08.205Z,100.00
2018-11-04T06:46:36.461Z,100.00
2018-11-04T06:49:04.696Z,99.65
2018-11-04T06:51:32.923Z,100.00
2018-11-04T06:54:01.122Z,100.00
2018-11-04T06:56:29.343Z,100.00
2018-11-04T06:58:57.570Z,100.00
2018-11-04T07:01:25.771Z,100.00
2018-11-04T07:03:54.005Z,99.83
2018-11-04T07:06:22.208Z,100.00
2018-11-04T07:08:50.459Z,95.86
2018-11-04T07:11:18.701Z,96.69
2018-11-04T07:13:47.354Z,97.13
2018-11-04T07:16:15.589Z,97.50
2018-11-04T07:18:43.793Z,98.14
2018-11-04T07:21:12.018Z,98.84
2018-11-04T07:23:40.218Z,99.65
2018-11-04T07:26:08.443Z,98.68
2018-11-04T07:28:36.651Z,99.14
2018-11-04T07:31:04.893Z,100.00
2018-11-04T07:33:33.099Z,98.33
2018-11-04T07:36:01.389Z,98.93
2018-11-04T07:38:29.633Z,98.42
2018-11-04T07:40:57.833Z,99.19
2018-11-04T07:43:26.051Z,97.69
2018-11-04T07:45:54.242Z,98.06
2018-11-04T07:48:22.448Z,98.71
2018-11-04T07:50:50.677Z,98.87
2018-11-04T07:53:18.906Z,99.29
2018-11-04T07:55:47.119Z,100.00
2018-11-04T07:58:15.323Z,99.64
2018-11-04T08:00:43.607Z,99.71
2018-11-04T08:03:11.761Z,100.00
2018-11-04T08:05:39.985Z,99.03
2018-11-04T08:08:08.262Z,99.82
2018-11-04T08:10:36.479Z,99.89
2018-11-04T08:13:05.111Z,99.15
2018-11-04T08:15:33.346Z,98.40
2018-11-04T08:18:01.710Z,98.26
2018-11-04T08:20:30.123Z,97.97
2018-11-04T08:22:58.501Z,97.93
2018-11-04T08:25:26.836Z,97.37
2018-11-04T08:27:55.336Z,98.21
2018-11-04T08:30:23.648Z,99.89
2018-11-04T08:32:52.254Z,100.00
2018-11-04T08:35:20.653Z,100.00
2018-11-04T08:37:49.122Z,100.00
2018-11-04T08:40:17.785Z,100.00
2018-11-04T08:42:46.274Z,99.85
2018-11-04T08:45:14.753Z,100.00
2018-11-04T08:47:43.109Z,100.00
2018-11-04T08:50:12.583Z,100.00
2018-11-04T08:52:41.004Z,100.00
2018-11-04T08:55:09.374Z,100.00
2018-11-04T08:57:37.769Z,100.00
2018-11-04T09:00:06.352Z,100.00
2018-11-04T09:02:34.683Z,100.00
2018-11-04T09:05:03.115Z,100.00
2018-11-04T09:07:32.613Z,100.00
2018-11-04T09:10:01.096Z,100.00
2018-11-04T09:12:29.779Z,100.00
2018-11-04T09:14:58.255Z,100.00
2018-11-04T09:17:26.946Z,100.00
2018-11-04T09:19:55.575Z,100.00
2018-11-04T09:22:24.222Z,100.00
2018-11-04T09:24:52.551Z,100.00
2018-11-04T09:27:20.917Z,100.00
2018-11-04T09:29:49.268Z,100.00
2018-11-04T09:32:17.815Z,100.00
2018-11-04T09:34:46.322Z,100.00
2018-11-04T09:37:14.689Z,100.00
2018-11-04T09:39:43.168Z,100.00
2018-11-04T09:42:11.653Z,100.00
2018-11-04T09:44:40.146Z,100.00
2018-11-04T09:47:08.543Z,100.00
2018-11-04T09:49:36.963Z,99.67
2018-11-04T09:52:05.577Z,100.00
2018-11-04T09:54:34.056Z,100.00
2018-11-04T09:57:02.536Z,100.00
2018-11-04T09:59:31.014Z,100.00
2018-11-04T10:01:59.502Z,100.00
2018-11-04T10:04:27.990Z,99.08
2018-11-04T10:06:57.079Z,98.17
2018-11-04T10:09:25.658Z,99.10
2018-11-04T10:11:54.007Z,100.00
2018-11-04T10:14:22.618Z,100.00
2018-11-04T10:16:51.683Z,100.00
2018-11-04T10:19:20.265Z,100.00
2018-11-04T10:21:48.661Z,100.00
2018-11-04T10:24:17.049Z,100.00
2018-11-04T10:26:45.423Z,100.00
2018-11-04T10:29:14.013Z,100.00
2018-11-04T10:31:42.502Z,100.00
2018-11-04T10:34:10.873Z,100.00
2018-11-04T10:36:39.504Z,100.00
2018-11-04T10:39:08.044Z,100.00
2018-11-04T10:41:36.528Z,100.00
2018-11-04T10:44:05.106Z,100.00
2018-11-04T10:46:34.225Z,98.52
2018-11-04T10:49:02.792Z,99.93
2018-11-04T10:51:31.279Z,100.00
2018-11-04T10:54:00.587Z,99.70
2018-11-04T10:56:30.075Z,100.00
2018-11-04T10:58:58.711Z,100.00
2018-11-04T11:01:27.251Z,100.00
2018-11-04T11:03:55.816Z,100.00
2018-11-04T11:06:24.391Z,100.00
2018-11-04T11:08:52.978Z,100.00
2018-11-04T11:11:21.410Z,100.00
2018-11-04T11:13:49.861Z,98.72
2018-11-04T11:16:18.626Z,98.51
2018-11-04T11:18:47.311Z,96.84
2018-11-04T11:21:15.792Z,96.00
2018-11-04T11:23:44.471Z,92.88
2018-11-04T11:26:13.061Z,92.72
2018-11-04T11:28:41.758Z,94.40
2018-11-04T11:31:11.346Z,95.23
2018-11-04T11:33:39.816Z,93.84
2018-11-04T11:36:08.423Z,95.16
2018-11-04T11:38:36.896Z,92.72
2018-11-04T11:41:05.370Z,92.15
2018-11-04T11:43:33.866Z,92.46
2018-11-04T11:46:02.286Z,91.29
2018-11-04T11:48:30.724Z,88.71
2018-11-04T11:50:59.315Z,88.78
2018-11-04T11:53:27.780Z,88.35
2018-11-04T11:55:56.261Z,91.72
2018-11-04T11:58:25.601Z,89.46
2018-11-04T12:00:54.127Z,89.39
2018-11-04T12:03:22.554Z,88.82
2018-11-04T12:05:51.032Z,85.57
2018-11-04T12:08:19.587Z,88.21
2018-11-04T12:10:47.972Z,87.50
2018-11-04T12:13:16.307Z,85.42
2018-11-04T12:15:44.827Z,89.24
2018-11-04T12:18:13.308Z,85.46
2018-11-04T12:20:41.793Z,87.85
2018-11-04T12:23:10.368Z,85.11
2018-11-04T12:25:38.852Z,86.67
2018-11-04T12:28:07.335Z,88.41
2018-11-04T12:30:35.908Z,88.94
2018-11-04T12:33:04.269Z,89.36
2018-11-04T12:35:32.780Z,89.29
2018-11-04T12:38:01.212Z,91.45
2018-11-04T12:40:29.724Z,88.51
2018-11-04T12:42:58.333Z,89.25
2018-11-04T12:45:26.849Z,89.53
2018-11-04T12:47:55.280Z,88.09
2018-11-04T12:50:23.764Z,87.44
2018-11-04T12:52:52.242Z,87.60
2018-11-04T12:55:21.206Z,87.24
2018-11-04T12:57:49.577Z,86.37
2018-11-04T13:00:17.987Z,84.88
2018-11-04T13:02:46.578Z,90.33
2018-11-04T13:05:15.163Z,88.69
2018-11-04T13:07:43.636Z,92.54
2018-11-04T13:10:12.399Z,93.52
2018-11-04T13:12:40.804Z,91.90
2018-11-04T13:15:09.294Z,91.66
2018-11-04T13:17:37.734Z,93.24
2018-11-04T13:20:06.375Z,94.93
2018-11-04T13:22:34.820Z,94.81
2018-11-04T13:25:03.413Z,94.27
2018-11-04T13:27:31.912Z,95.42
2018-11-04T13:30:00.596Z,94.67
2018-11-04T13:32:29.860Z,95.42
2018-11-04T13:34:58.370Z,93.66
2018-11-04T13:37:26.993Z,93.71
2018-11-04T13:39:55.622Z,91.92
2018-11-04T13:42:24.354Z,93.73
2018-11-04T13:44:52.904Z,94.06
2018-11-04T13:47:21.522Z,95.56
2018-11-04T13:49:50.230Z,96.54
2018-11-04T13:52:18.919Z,95.30
2018-11-04T13:54:47.537Z,91.78
2018-11-04T13:57:16.216Z,93.65
2018-11-04T13:59:44.904Z,95.21
2018-11-04T14:02:13.507Z,94.32
2018-11-04T14:04:42.722Z,93.49
2018-11-04T14:07:11.778Z,95.91
2018-11-04T14:09:40.779Z,94.28
2018-11-04T14:12:09.581Z,93.62
2018-11-04T14:14:38.350Z,95.13
2018-11-04T14:17:07.391Z,93.72
2018-11-04T14:19:35.933Z,91.22
2018-11-04T14:22:04.608Z,91.79
2018-11-04T14:24:34.188Z,93.00
2018-11-04T14:27:04.293Z,92.48
2018-11-04T14:29:34.043Z,93.41
2018-11-04T14:32:03.163Z,95.88
2018-11-04T14:34:31.848Z,96.88
2018-11-04T14:37:00.513Z,93.97
2018-11-04T14:39:29.223Z,95.12
2018-11-04T14:41:58.919Z,94.62
2018-11-04T14:44:27.823Z,95.56
2018-11-04T14:46:56.258Z,96.57
2018-11-04T14:49:24.968Z,97.90
2018-11-04T14:51:53.747Z,98.37
2018-11-04T14:54:22.335Z,97.32
2018-11-04T14:56:51.000Z,98.61
2018-11-04T14:59:19.808Z,98.57
2018-11-04T15:01:48.565Z,98.05
2018-11-04T15:04:17.073Z,97.89
2018-11-04T15:06:45.969Z,97.24
2018-11-04T15:09:14.656Z,97.76
2018-11-04T15:11:43.336Z,97.11
2018-11-04T15:14:12.026Z,98.47
2018-11-04T15:16:40.622Z,99.11
2018-11-04T15:19:09.363Z,96.66
2018-11-04T15:21:37.975Z,97.97
2018-11-04T15:24:06.557Z,98.50
2018-11-04T15:26:35.321Z,98.86
2018-11-04T15:29:03.933Z,99.95
2018-11-04T15:31:32.460Z,99.30
2018-11-04T15:34:01.158Z,100.00
2018-11-04T15:36:29.692Z,100.00
2018-11-04T15:38:58.350Z,100.00
2018-11-04T15:41:26.948Z,100.00
2018-11-04T15:43:57.125Z,100.00
2018-11-04T15:46:26.060Z,100.00
2018-11-04T15:48:55.099Z,100.00
2018-11-04T15:51:24.108Z,100.00
2018-11-04T15:53:52.833Z,100.00
2018-11-04T15:56:21.533Z,100.00
2018-11-04T15:58:50.413Z,100.00
2018-11-04T16:01:18.887Z,100.00
2018-11-04T16:03:47.969Z,100.00
2018-11-04T16:06:16.678Z,100.00
2018-11-04T16:08:45.148Z,100.00
2018-11-04T16:11:13.606Z,100.00
2018-11-04T16:13:42.248Z,100.00
2018-11-04T16:16:11.205Z,100.00
2018-11-04T16:18:39.977Z,100.00
2018-11-04T16:21:08.985Z,100.00
2018-11-04T16:23:37.979Z,100.00
2018-11-04T16:26:06.886Z,100.00
2018-11-04T16:28:35.475Z,100.00
2018-11-04T16:31:03.909Z,100.00
2018-11-04T16:33:32.540Z,100.00
2018-11-04T16:36:01.204Z,100.00
2018-11-04T16:38:29.965Z,100.00
2018-11-04T16:40:58.574Z,100.00
2018-11-04T16:43:27.192Z,100.00
2018-11-04T16:45:55.744Z,100.00
2018-11-04T16:48:24.440Z,100.00
2018-11-04T16:50:53.230Z,100.00
2018-11-04T16:53:22.065Z,100.00
2018-11-04T16:55:50.687Z,100.00
2018-11-04T16:58:19.168Z,100.00
2018-11-04T17:00:48.426Z,100.00
2018-11-04T17:03:16.956Z,100.00
2018-11-04T17:05:45.705Z,100.00
2018-11-04T17:08:14.357Z,100.00
2018-11-04T17:10:44.748Z,100.00
2018-11-04T17:13:13.940Z,100.00
2018-11-04T17:15:43.299Z,100.00
2018-11-04T17:18:12.405Z,100.00
2018-11-04T17:20:41.356Z,100.00
2018-11-04T17:23:11.251Z,100.00
2018-11-04T17:25:40.631Z,100.00
2018-11-04T17:28:09.728Z,100.00
2018-11-04T17:30:39.398Z,100.00
2018-11-04T17:33:08.914Z,100.00
2018-11-04T17:35:38.881Z,100.00
2018-11-04T17:38:09.309Z,100.00
2018-11-04T17:40:38.599Z,100.00
2018-11-04T17:43:07.373Z,100.00
2018-11-04T17:45:36.345Z,100.00
2018-11-04T17:48:05.268Z,100.00
2018-11-04T17:50:34.311Z,100.00
2018-11-04T17:53:03.350Z,100.00
2018-11-04T17:55:33.409Z,100.00
2018-11-04T17:58:02.814Z,100.00
2018-11-04T18:00:31.668Z,100.00
2018-11-04T18:03:00.348Z,100.00
2018-11-04T18:05:29.136Z,100.00
2018-11-04T18:07:57.775Z,100.00
2018-11-04T18:10:26.409Z,100.00
2018-11-04T18:12:54.851Z,100.00
2018-11-04T18:15:23.373Z,100.00
2018-11-04T18:17:51.771Z,100.00
2018-11-04T18:20:20.396Z,100.00
2018-11-04T18:22:49.113Z,100.00
2018-11-04T18:25:18.930Z,100.00
2018-11-04T18:27:48.003Z,100.00
2018-11-04T18:30:16.716Z,100.00
2018-11-04T18:32:45.604Z,100.00
2018-11-04T18:35:14.289Z,100.00
2018-11-04T18:37:42.865Z,100.00
2018-11-04T18:40:11.455Z,100.00
2018-11-04T18:42:40.452Z,100.00
2018-11-04T18:45:09.393Z,100.00
2018-11-04T18:47:37.913Z,100.00
2018-11-04T18:50:06.906Z,100.00
2018-11-04T18:52:35.893Z,100.00
2018-11-04T18:55:04.699Z,100.00
2018-11-04T18:57:33.895Z,100.00
2018-11-04T19:00:02.898Z,100.00
2018-11-04T19:02:31.718Z,100.00
2018-11-04T19:05:00.357Z,100.00
2018-11-04T19:07:28.943Z,100.00
2018-11-04T19:09:57.575Z,100.00
2018-11-04T19:12:26.306Z,100.00
2018-11-04T19:14:55.008Z,100.00
2018-11-04T19:17:23.490Z,100.00
2018-11-04T19:19:52.311Z,100.00
2018-11-04T19:22:21.046Z,100.00
2018-11-04T19:24:50.560Z,100.00
2018-11-04T19:27:19.242Z,100.00
2018-11-04T19:29:48.016Z,100.00
2018-11-04T19:32:16.762Z,100.00
2018-11-04T19:34:45.752Z,100.00
2018-11-04T19:37:14.586Z,100.00
2018-11-04T19:39:43.284Z,100.00
2018-11-04T19:42:12.173Z,100.00
2018-11-04T19:44:40.897Z,100.00
2018-11-04T19:47:09.549Z,100.00
2018-11-04T19:49:38.236Z,100.00
2018-11-04T19:52:07.669Z,100.00
2018-11-04T19:54:36.488Z,100.00
2018-11-04T19:57:05.517Z,100.00
2018-11-04T19:59:34.513Z,100.00
2018-11-04T20:02:04.211Z,100.00
2018-11-04T20:04:32.912Z,100.00
2018-11-04T20:07:02.700Z,100.00
2018-11-04T20:09:31.294Z,100.00
2018-11-04T20:11:59.980Z,100.00
2018-11-04T20:14:28.575Z,100.00
2018-11-04T20:16:57.252Z,100.00
2018-11-04T20:19:31.540Z,100.00
2018-11-04T20:22:00.335Z,100.00
2018-11-04T20:24:30.406Z,100.00
2018-11-04T20:26:59.494Z,100.00
2018-11-04T20:29:28.710Z,100.00
2018-11-04T20:31:57.710Z,100.00
2018-11-04T20:34:26.448Z,100.00
2018-11-04T20:36:55.571Z,100.00
2018-11-04T20:39:24.318Z,100.00
2018-11-04T20:41:53.418Z,100.00
2018-11-04T20:44:22.863Z,100.00
2018-11-04T20:46:53.849Z,100.00
2018-11-04T21:34:08.265Z,100.00
2018-11-04T21:36:37.006Z,100.00
2018-11-04T21:39:05.915Z,100.00
2018-11-04T21:41:34.567Z,100.00
2018-11-04T21:44:03.805Z,100.00
2018-11-04T21:46:32.450Z,100.00
2018-11-04T21:49:01.815Z,100.00
2018-11-04T21:51:30.541Z,100.00
2018-11-04T21:53:59.530Z,100.00
2018-11-04T21:56:28.906Z,100.00
2018-11-04T21:58:57.823Z,100.00
2018-11-04T22:01:26.319Z,100.00
2018-11-04T22:03:55.774Z,100.00
2018-11-04T22:06:23.794Z,100.00
2018-11-04T22:08:52.566Z,100.00
2018-11-04T22:11:21.356Z,100.00
2018-11-04T22:13:50.956Z,100.00
2018-11-04T22:16:19.475Z,100.00
2018-11-04T22:18:48.031Z,100.00
2018-11-04T22:21:16.865Z,100.00
2018-11-04T22:23:45.603Z,100.00
2018-11-04T22:26:14.269Z,100.00
2018-11-04T22:28:43.025Z,100.00
2018-11-04T22:31:11.656Z,100.00
2018-11-04T22:33:40.099Z,100.00
2018-11-04T22:36:08.600Z,100.00
2018-11-04T22:38:37.115Z,100.00
2018-11-04T22:41:06.681Z,100.00
2018-11-04T22:43:35.426Z,100.00
2018-11-04T22:46:03.983Z,100.00
2018-11-04T22:48:32.995Z,100.00
2018-11-04T22:51:01.754Z,100.00
2018-11-04T22:53:32.748Z,100.00
2018-11-04T22:56:02.170Z,100.00
2018-11-04T22:58:30.584Z,100.00
2018-11-04T23:00:59.772Z,100.00
2018-11-04T23:03:28.564Z,100.00
2018-11-04T23:05:57.148Z,100.00
2018-11-04T23:08:25.539Z,100.00
2018-11-04T23:10:53.911Z,100.00
2018-11-04T23:13:22.346Z,100.00
2018-11-04T23:15:50.813Z,100.00
2018-11-04T23:18:19.393Z,100.00
2018-11-04T23:20:47.786Z,100.00
2018-11-04T23:23:16.406Z,100.00
2018-11-04T23:25:44.991Z,100.00
2018-11-04T23:28:13.616Z,100.00
2018-11-04T23:30:42.070Z,100.00
2018-11-04T23:33:10.526Z,100.00
2018-11-04T23:35:39.014Z,100.00
2018-11-04T23:38:07.589Z,100.00
2018-11-04T23:40:36.087Z,100.00
2018-11-04T23:43:04.723Z,100.00
2018-11-04T23:45:33.241Z,100.00
2018-11-04T23:48:01.723Z,100.00
2018-11-04T23:50:30.115Z,100.00
2018-11-04T23:52:58.588Z,100.00
2018-11-04T23:55:27.071Z,100.00
2018-11-04T23:57:55.648Z,100.00
